sensor_id;sensor_type;location;lat;lon;timestamp;P1;P2;P0
69224;PMS1003;56333;51.306;17.056;2023-09-18T00:00:04;6.80;6.20;
69224;PMS1003;56333;51.306;17.056;2023-09-18T00:01:55;6.60;5.80;
69224;PMS1003;56333;51.306;17.056;2023-09-18T00:03:19;7.00;6.00;
69224;PMS1003;56333;51.306;17.056;2023-09-18T00:04:47;6.70;5.80;
69224;PMS1003;56333;51.306;17.056;2023-09-18T00:06:12;7.40;6.00;
69224;PMS1003;56333;51.306;17.056;2023-09-18T00:07:38;6.80;6.10;
69224;PMS1003;56333;51.306;17.056;2023-09-18T00:09:03;6.60;6.00;
69224;PMS1003;56333;51.306;17.056;2023-09-18T00:10:28;6.50;5.90;
69224;PMS1003;56333;51.306;17.056;2023-09-18T00:11:53;6.70;6.10;
69224;PMS1003;56333;51.306;17.056;2023-09-18T00:13:17;6.90;6.30;
69224;PMS1003;56333;51.306;17.056;2023-09-18T00:14:42;6.60;6.00;
69224;PMS1003;56333;51.306;17.056;2023-09-18T00:16:07;6.30;5.70;
69224;PMS1003;56333;51.306;17.056;2023-09-18T00:17:32;7.20;6.30;
69224;PMS1003;56333;51.306;17.056;2023-09-18T00:18:57;7.20;6.50;
69224;PMS1003;56333;51.306;17.056;2023-09-18T00:20:22;7.20;6.20;
69224;PMS1003;56333;51.306;17.056;2023-09-18T00:21:49;7.20;6.50;
69224;PMS1003;56333;51.306;17.056;2023-09-18T00:23:15;6.90;6.10;
69224;PMS1003;56333;51.306;17.056;2023-09-18T00:24:41;6.50;5.90;
69224;PMS1003;56333;51.306;17.056;2023-09-18T00:26:06;6.90;6.20;
69224;PMS1003;56333;51.306;17.056;2023-09-18T00:27:31;6.70;6.10;
69224;PMS1003;56333;51.306;17.056;2023-09-18T00:28:56;6.80;6.10;
69224;PMS1003;56333;51.306;17.056;2023-09-18T00:30:21;7.10;6.40;
69224;PMS1003;56333;51.306;17.056;2023-09-18T00:31:45;7.10;6.20;
69224;PMS1003;56333;51.306;17.056;2023-09-18T00:33:11;7.20;6.40;
69224;PMS1003;56333;51.306;17.056;2023-09-18T00:34:36;6.70;6.10;
69224;PMS1003;56333;51.306;17.056;2023-09-18T00:36:00;7.30;6.30;
69224;PMS1003;56333;51.306;17.056;2023-09-18T00:37:26;6.80;6.10;
69224;PMS1003;56333;51.306;17.056;2023-09-18T00:38:51;6.80;6.10;
69224;PMS1003;56333;51.306;17.056;2023-09-18T00:40:16;6.70;6.10;
69224;PMS1003;56333;51.306;17.056;2023-09-18T00:41:41;7.20;6.50;
69224;PMS1003;56333;51.306;17.056;2023-09-18T00:43:06;7.80;6.50;
69224;PMS1003;56333;51.306;17.056;2023-09-18T00:44:31;7.80;6.50;
69224;PMS1003;56333;51.306;17.056;2023-09-18T00:45:56;9.10;6.50;
69224;PMS1003;56333;51.306;17.056;2023-09-18T00:47:20;7.20;6.40;
69224;PMS1003;56333;51.306;17.056;2023-09-18T00:48:45;7.80;6.20;
69224;PMS1003;56333;51.306;17.056;2023-09-18T00:50:12;7.00;6.30;
69224;PMS1003;56333;51.306;17.056;2023-09-18T00:51:38;7.10;6.40;
69224;PMS1003;56333;51.306;17.056;2023-09-18T00:53:03;6.70;6.10;
69224;PMS1003;56333;51.306;17.056;2023-09-18T00:54:28;7.10;6.30;
69224;PMS1003;56333;51.306;17.056;2023-09-18T00:55:57;6.90;6.30;
69224;PMS1003;56333;51.306;17.056;2023-09-18T00:57:23;8.50;6.40;
69224;PMS1003;56333;51.306;17.056;2023-09-18T00:58:48;6.90;6.30;
69224;PMS1003;56333;51.306;17.056;2023-09-18T01:00:16;6.90;6.20;
69224;PMS1003;56333;51.306;17.056;2023-09-18T01:01:42;7.10;6.40;
69224;PMS1003;56333;51.306;17.056;2023-09-18T01:03:07;7.20;6.30;
69224;PMS1003;56333;51.306;17.056;2023-09-18T01:04:33;7.70;6.40;
69224;PMS1003;56333;51.306;17.056;2023-09-18T01:05:58;7.00;6.20;
69224;PMS1003;56333;51.306;17.056;2023-09-18T01:07:23;7.80;6.60;
69224;PMS1003;56333;51.306;17.056;2023-09-18T01:08:48;7.00;6.40;
69224;PMS1003;56333;51.306;17.056;2023-09-18T01:10:16;7.10;6.40;
69224;PMS1003;56333;51.306;17.056;2023-09-18T01:11:49;7.60;6.90;
69224;PMS1003;56333;51.306;17.056;2023-09-18T01:13:23;7.30;6.60;
69224;PMS1003;56333;51.306;17.056;2023-09-18T01:14:59;7.40;6.50;
69224;PMS1003;56333;51.306;17.056;2023-09-18T01:16:36;7.10;6.40;
69224;PMS1003;56333;51.306;17.056;2023-09-18T01:18:07;7.60;6.80;
69224;PMS1003;56333;51.306;17.056;2023-09-18T01:19:42;7.50;6.80;
69224;PMS1003;56333;51.306;17.056;2023-09-18T01:21:09;7.30;6.60;
69224;PMS1003;56333;51.306;17.056;2023-09-18T01:22:33;7.70;6.60;
69224;PMS1003;56333;51.306;17.056;2023-09-18T01:23:58;7.30;6.50;
69224;PMS1003;56333;51.306;17.056;2023-09-18T01:25:23;7.20;6.50;
69224;PMS1003;56333;51.306;17.056;2023-09-18T01:26:47;7.40;6.40;
69224;PMS1003;56333;51.306;17.056;2023-09-18T01:28:12;7.40;6.80;
69224;PMS1003;56333;51.306;17.056;2023-09-18T01:29:37;7.20;6.50;
69224;PMS1003;56333;51.306;17.056;2023-09-18T01:31:01;7.00;6.40;
69224;PMS1003;56333;51.306;17.056;2023-09-18T01:32:29;7.70;6.90;
69224;PMS1003;56333;51.306;17.056;2023-09-18T01:33:55;8.60;6.80;
69224;PMS1003;56333;51.306;17.056;2023-09-18T01:35:20;7.80;7.00;
69224;PMS1003;56333;51.306;17.056;2023-09-18T01:36:52;8.30;7.50;
69224;PMS1003;56333;51.306;17.056;2023-09-18T01:38:17;7.50;6.80;
69224;PMS1003;56333;51.306;17.056;2023-09-18T01:39:42;7.10;6.50;
69224;PMS1003;56333;51.306;17.056;2023-09-18T01:41:07;8.00;6.70;
69224;PMS1003;56333;51.306;17.056;2023-09-18T01:42:33;7.60;6.80;
69224;PMS1003;56333;51.306;17.056;2023-09-18T01:43:58;7.30;6.60;
69224;PMS1003;56333;51.306;17.056;2023-09-18T01:45:23;7.80;6.80;
69224;PMS1003;56333;51.306;17.056;2023-09-18T01:46:47;7.90;7.10;
69224;PMS1003;56333;51.306;17.056;2023-09-18T01:48:14;8.30;6.80;
69224;PMS1003;56333;51.306;17.056;2023-09-18T01:49:40;7.60;6.90;
69224;PMS1003;56333;51.306;17.056;2023-09-18T01:51:05;7.80;7.00;
69224;PMS1003;56333;51.306;17.056;2023-09-18T01:52:30;7.10;6.50;
69224;PMS1003;56333;51.306;17.056;2023-09-18T01:53:56;7.90;7.10;
69224;PMS1003;56333;51.306;17.056;2023-09-18T01:55:21;8.90;6.90;
69224;PMS1003;56333;51.306;17.056;2023-09-18T01:56:47;7.80;7.00;
69224;PMS1003;56333;51.306;17.056;2023-09-18T01:58:11;7.70;6.90;
69224;PMS1003;56333;51.306;17.056;2023-09-18T01:59:38;9.90;7.20;
69224;PMS1003;56333;51.306;17.056;2023-09-18T02:01:04;7.80;7.10;
69224;PMS1003;56333;51.306;17.056;2023-09-18T02:02:29;7.90;7.10;
69224;PMS1003;56333;51.306;17.056;2023-09-18T02:03:54;8.50;7.60;
69224;PMS1003;56333;51.306;17.056;2023-09-18T02:05:19;7.90;7.10;
69224;PMS1003;56333;51.306;17.056;2023-09-18T02:06:44;8.50;7.30;
69224;PMS1003;56333;51.306;17.056;2023-09-18T02:08:09;7.90;7.10;
69224;PMS1003;56333;51.306;17.056;2023-09-18T02:09:33;8.00;7.10;
69224;PMS1003;56333;51.306;17.056;2023-09-18T02:10:58;7.40;6.70;
69224;PMS1003;56333;51.306;17.056;2023-09-18T02:12:23;7.70;7.00;
69224;PMS1003;56333;51.306;17.056;2023-09-18T02:13:48;7.60;6.90;
69224;PMS1003;56333;51.306;17.056;2023-09-18T02:15:13;7.30;6.60;
69224;PMS1003;56333;51.306;17.056;2023-09-18T02:16:41;9.30;7.20;
69224;PMS1003;56333;51.306;17.056;2023-09-18T02:18:06;7.50;6.80;
69224;PMS1003;56333;51.306;17.056;2023-09-18T02:19:31;8.50;7.00;
69224;PMS1003;56333;51.306;17.056;2023-09-18T02:20:55;8.00;7.30;
69224;PMS1003;56333;51.306;17.056;2023-09-18T02:22:20;9.50;7.10;
69224;PMS1003;56333;51.306;17.056;2023-09-18T02:23:44;7.90;7.10;
69224;PMS1003;56333;51.306;17.056;2023-09-18T02:25:09;8.40;7.60;
69224;PMS1003;56333;51.306;17.056;2023-09-18T02:26:34;8.10;7.30;
69224;PMS1003;56333;51.306;17.056;2023-09-18T02:27:59;8.10;7.30;
69224;PMS1003;56333;51.306;17.056;2023-09-18T02:29:24;7.80;7.00;
69224;PMS1003;56333;51.306;17.056;2023-09-18T02:30:48;7.90;7.20;
69224;PMS1003;56333;51.306;17.056;2023-09-18T02:32:15;7.70;7.00;
69224;PMS1003;56333;51.306;17.056;2023-09-18T02:33:40;8.00;7.20;
69224;PMS1003;56333;51.306;17.056;2023-09-18T02:35:07;7.60;6.80;
69224;PMS1003;56333;51.306;17.056;2023-09-18T02:36:32;7.40;6.70;
69224;PMS1003;56333;51.306;17.056;2023-09-18T02:37:57;7.80;7.00;
69224;PMS1003;56333;51.306;17.056;2023-09-18T02:39:24;7.80;7.10;
69224;PMS1003;56333;51.306;17.056;2023-09-18T02:40:49;7.50;6.80;
69224;PMS1003;56333;51.306;17.056;2023-09-18T02:42:13;7.90;7.10;
69224;PMS1003;56333;51.306;17.056;2023-09-18T02:43:39;7.90;7.20;
69224;PMS1003;56333;51.306;17.056;2023-09-18T02:45:05;7.80;7.10;
69224;PMS1003;56333;51.306;17.056;2023-09-18T02:46:32;7.60;6.90;
69224;PMS1003;56333;51.306;17.056;2023-09-18T02:47:57;8.60;7.80;
69224;PMS1003;56333;51.306;17.056;2023-09-18T02:49:21;7.80;7.10;
69224;PMS1003;56333;51.306;17.056;2023-09-18T02:50:46;8.00;7.00;
69224;PMS1003;56333;51.306;17.056;2023-09-18T02:52:10;8.40;7.50;
69224;PMS1003;56333;51.306;17.056;2023-09-18T02:53:36;8.30;7.40;
69224;PMS1003;56333;51.306;17.056;2023-09-18T02:55:00;7.80;7.10;
69224;PMS1003;56333;51.306;17.056;2023-09-18T02:56:26;8.20;7.00;
69224;PMS1003;56333;51.306;17.056;2023-09-18T02:57:51;7.70;7.00;
69224;PMS1003;56333;51.306;17.056;2023-09-18T02:59:16;7.90;6.80;
69224;PMS1003;56333;51.306;17.056;2023-09-18T03:00:43;7.80;7.00;
69224;PMS1003;56333;51.306;17.056;2023-09-18T03:02:08;8.60;7.10;
69224;PMS1003;56333;51.306;17.056;2023-09-18T03:03:35;8.10;7.30;
69224;PMS1003;56333;51.306;17.056;2023-09-18T03:05:00;7.50;6.80;
69224;PMS1003;56333;51.306;17.056;2023-09-18T03:06:25;8.20;7.30;
69224;PMS1003;56333;51.306;17.056;2023-09-18T03:07:49;7.90;7.10;
69224;PMS1003;56333;51.306;17.056;2023-09-18T03:09:13;8.70;7.20;
69224;PMS1003;56333;51.306;17.056;2023-09-18T03:10:41;8.00;7.20;
69224;PMS1003;56333;51.306;17.056;2023-09-18T03:12:07;7.50;6.80;
69224;PMS1003;56333;51.306;17.056;2023-09-18T03:13:32;8.00;7.20;
69224;PMS1003;56333;51.306;17.056;2023-09-18T03:14:56;8.50;7.50;
69224;PMS1003;56333;51.306;17.056;2023-09-18T03:16:21;9.60;7.50;
69224;PMS1003;56333;51.306;17.056;2023-09-18T03:17:46;8.00;7.20;
69224;PMS1003;56333;51.306;17.056;2023-09-18T03:19:11;7.50;6.80;
69224;PMS1003;56333;51.306;17.056;2023-09-18T03:20:36;7.70;7.00;
69224;PMS1003;56333;51.306;17.056;2023-09-18T03:22:00;7.90;7.20;
69224;PMS1003;56333;51.306;17.056;2023-09-18T03:23:25;7.90;7.20;
69224;PMS1003;56333;51.306;17.056;2023-09-18T03:24:50;7.70;6.90;
69224;PMS1003;56333;51.306;17.056;2023-09-18T03:26:15;7.70;7.00;
69224;PMS1003;56333;51.306;17.056;2023-09-18T03:27:40;8.00;7.30;
69224;PMS1003;56333;51.306;17.056;2023-09-18T03:29:05;7.90;7.10;
69224;PMS1003;56333;51.306;17.056;2023-09-18T03:30:29;8.30;7.50;
69224;PMS1003;56333;51.306;17.056;2023-09-18T03:31:55;7.70;6.90;
69224;PMS1003;56333;51.306;17.056;2023-09-18T03:33:21;7.70;7.00;
69224;PMS1003;56333;51.306;17.056;2023-09-18T03:34:46;7.50;6.80;
69224;PMS1003;56333;51.306;17.056;2023-09-18T03:36:10;7.50;6.80;
69224;PMS1003;56333;51.306;17.056;2023-09-18T03:37:36;7.90;7.20;
69224;PMS1003;56333;51.306;17.056;2023-09-18T03:39:01;7.90;7.10;
69224;PMS1003;56333;51.306;17.056;2023-09-18T03:40:27;7.80;7.00;
69224;PMS1003;56333;51.306;17.056;2023-09-18T03:41:51;8.10;7.30;
69224;PMS1003;56333;51.306;17.056;2023-09-18T03:43:16;7.70;7.00;
69224;PMS1003;56333;51.306;17.056;2023-09-18T03:44:41;8.00;7.20;
69224;PMS1003;56333;51.306;17.056;2023-09-18T03:46:07;7.70;6.80;
69224;PMS1003;56333;51.306;17.056;2023-09-18T03:47:38;8.20;7.40;
69224;PMS1003;56333;51.306;17.056;2023-09-18T03:49:04;8.00;7.20;
69224;PMS1003;56333;51.306;17.056;2023-09-18T03:50:33;7.80;7.10;
69224;PMS1003;56333;51.306;17.056;2023-09-18T03:51:58;8.30;7.60;
69224;PMS1003;56333;51.306;17.056;2023-09-18T03:53:22;8.40;7.60;
69224;PMS1003;56333;51.306;17.056;2023-09-18T03:54:47;8.10;7.40;
69224;PMS1003;56333;51.306;17.056;2023-09-18T03:56:11;8.30;7.60;
69224;PMS1003;56333;51.306;17.056;2023-09-18T03:57:38;8.40;7.50;
69224;PMS1003;56333;51.306;17.056;2023-09-18T03:59:04;8.30;7.40;
69224;PMS1003;56333;51.306;17.056;2023-09-18T04:00:28;7.90;7.20;
69224;PMS1003;56333;51.306;17.056;2023-09-18T04:01:53;10.40;8.10;
69224;PMS1003;56333;51.306;17.056;2023-09-18T04:03:18;8.20;7.30;
69224;PMS1003;56333;51.306;17.056;2023-09-18T04:04:43;9.80;7.90;
69224;PMS1003;56333;51.306;17.056;2023-09-18T04:06:08;9.80;7.70;
69224;PMS1003;56333;51.306;17.056;2023-09-18T04:07:34;9.60;7.70;
69224;PMS1003;56333;51.306;17.056;2023-09-18T04:08:59;8.30;7.50;
69224;PMS1003;56333;51.306;17.056;2023-09-18T04:10:24;9.60;8.60;
69224;PMS1003;56333;51.306;17.056;2023-09-18T04:11:49;10.20;9.00;
69224;PMS1003;56333;51.306;17.056;2023-09-18T04:13:14;9.30;8.40;
69224;PMS1003;56333;51.306;17.056;2023-09-18T04:14:40;8.90;8.00;
69224;PMS1003;56333;51.306;17.056;2023-09-18T04:16:05;9.10;8.00;
69224;PMS1003;56333;51.306;17.056;2023-09-18T04:17:31;9.20;8.40;
69224;PMS1003;56333;51.306;17.056;2023-09-18T04:18:55;8.70;7.80;
69224;PMS1003;56333;51.306;17.056;2023-09-18T04:20:20;9.20;8.30;
69224;PMS1003;56333;51.306;17.056;2023-09-18T04:21:46;8.00;7.30;
69224;PMS1003;56333;51.306;17.056;2023-09-18T04:23:23;8.50;7.70;
69224;PMS1003;56333;51.306;17.056;2023-09-18T04:24:49;9.00;7.90;
69224;PMS1003;56333;51.306;17.056;2023-09-18T04:26:14;8.50;7.60;
69224;PMS1003;56333;51.306;17.056;2023-09-18T04:27:39;8.60;7.80;
69224;PMS1003;56333;51.306;17.056;2023-09-18T04:29:04;8.60;7.80;
69224;PMS1003;56333;51.306;17.056;2023-09-18T04:30:29;8.80;7.90;
69224;PMS1003;56333;51.306;17.056;2023-09-18T04:31:54;8.40;7.60;
69224;PMS1003;56333;51.306;17.056;2023-09-18T04:33:18;9.50;7.90;
69224;PMS1003;56333;51.306;17.056;2023-09-18T04:34:44;9.50;7.90;
69224;PMS1003;56333;51.306;17.056;2023-09-18T04:36:09;8.70;7.80;
69224;PMS1003;56333;51.306;17.056;2023-09-18T04:37:37;8.80;8.00;
69224;PMS1003;56333;51.306;17.056;2023-09-18T04:39:04;9.60;7.90;
69224;PMS1003;56333;51.306;17.056;2023-09-18T04:40:29;8.60;7.80;
69224;PMS1003;56333;51.306;17.056;2023-09-18T04:41:56;9.10;8.20;
69224;PMS1003;56333;51.306;17.056;2023-09-18T04:43:20;8.50;7.70;
69224;PMS1003;56333;51.306;17.056;2023-09-18T04:44:48;9.20;8.20;
69224;PMS1003;56333;51.306;17.056;2023-09-18T04:46:12;8.80;7.90;
69224;PMS1003;56333;51.306;17.056;2023-09-18T04:47:38;8.70;7.80;
69224;PMS1003;56333;51.306;17.056;2023-09-18T04:49:03;9.30;7.90;
69224;PMS1003;56333;51.306;17.056;2023-09-18T04:50:28;13.90;8.20;
69224;PMS1003;56333;51.306;17.056;2023-09-18T04:51:54;16.10;8.40;
69224;PMS1003;56333;51.306;17.056;2023-09-18T04:53:19;13.60;8.00;
69224;PMS1003;56333;51.306;17.056;2023-09-18T04:54:43;11.40;8.30;
69224;PMS1003;56333;51.306;17.056;2023-09-18T04:56:08;9.90;8.20;
69224;PMS1003;56333;51.306;17.056;2023-09-18T04:57:33;10.20;7.90;
69224;PMS1003;56333;51.306;17.056;2023-09-18T04:58:58;8.90;8.00;
69224;PMS1003;56333;51.306;17.056;2023-09-18T05:00:23;9.30;8.10;
69224;PMS1003;56333;51.306;17.056;2023-09-18T05:01:49;10.00;8.10;
69224;PMS1003;56333;51.306;17.056;2023-09-18T05:03:13;8.70;7.70;
69224;PMS1003;56333;51.306;17.056;2023-09-18T05:04:38;8.50;7.70;
69224;PMS1003;56333;51.306;17.056;2023-09-18T05:06:03;8.80;8.00;
69224;PMS1003;56333;51.306;17.056;2023-09-18T05:07:27;8.40;7.50;
69224;PMS1003;56333;51.306;17.056;2023-09-18T05:08:52;8.90;7.30;
69224;PMS1003;56333;51.306;17.056;2023-09-18T05:10:18;9.80;8.30;
69224;PMS1003;56333;51.306;17.056;2023-09-18T05:11:42;9.00;8.00;
69224;PMS1003;56333;51.306;17.056;2023-09-18T05:13:07;9.20;8.20;
69224;PMS1003;56333;51.306;17.056;2023-09-18T05:14:31;9.00;7.80;
69224;PMS1003;56333;51.306;17.056;2023-09-18T05:15:56;8.50;7.70;
69224;PMS1003;56333;51.306;17.056;2023-09-18T05:17:27;8.80;7.90;
69224;PMS1003;56333;51.306;17.056;2023-09-18T05:19:04;9.10;8.20;
69224;PMS1003;56333;51.306;17.056;2023-09-18T05:20:30;9.20;8.30;
69224;PMS1003;56333;51.306;17.056;2023-09-18T05:21:54;9.10;8.10;
69224;PMS1003;56333;51.306;17.056;2023-09-18T05:23:19;8.60;7.80;
69224;PMS1003;56333;51.306;17.056;2023-09-18T05:24:43;9.00;8.10;
69224;PMS1003;56333;51.306;17.056;2023-09-18T05:26:10;9.80;8.80;
69224;PMS1003;56333;51.306;17.056;2023-09-18T05:27:34;9.10;8.20;
69224;PMS1003;56333;51.306;17.056;2023-09-18T05:28:59;9.00;8.20;
69224;PMS1003;56333;51.306;17.056;2023-09-18T05:30:27;9.30;8.30;
69224;PMS1003;56333;51.306;17.056;2023-09-18T05:31:53;9.30;8.40;
69224;PMS1003;56333;51.306;17.056;2023-09-18T05:33:18;10.50;8.50;
69224;PMS1003;56333;51.306;17.056;2023-09-18T05:34:43;9.70;8.30;
69224;PMS1003;56333;51.306;17.056;2023-09-18T05:36:08;8.40;7.60;
69224;PMS1003;56333;51.306;17.056;2023-09-18T05:37:32;8.70;7.80;
69224;PMS1003;56333;51.306;17.056;2023-09-18T05:38:57;8.70;7.90;
69224;PMS1003;56333;51.306;17.056;2023-09-18T05:40:22;9.30;8.40;
69224;PMS1003;56333;51.306;17.056;2023-09-18T05:41:49;8.60;7.80;
69224;PMS1003;56333;51.306;17.056;2023-09-18T05:43:15;8.60;7.80;
69224;PMS1003;56333;51.306;17.056;2023-09-18T05:44:41;10.60;8.40;
69224;PMS1003;56333;51.306;17.056;2023-09-18T05:46:05;9.30;8.20;
69224;PMS1003;56333;51.306;17.056;2023-09-18T05:47:29;8.90;8.00;
69224;PMS1003;56333;51.306;17.056;2023-09-18T05:48:55;10.10;9.10;
69224;PMS1003;56333;51.306;17.056;2023-09-18T05:50:19;9.60;8.70;
69224;PMS1003;56333;51.306;17.056;2023-09-18T05:51:44;9.70;8.70;
69224;PMS1003;56333;51.306;17.056;2023-09-18T05:53:10;9.40;8.50;
69224;PMS1003;56333;51.306;17.056;2023-09-18T05:54:34;9.60;8.40;
69224;PMS1003;56333;51.306;17.056;2023-09-18T05:55:59;9.30;8.40;
69224;PMS1003;56333;51.306;17.056;2023-09-18T05:57:26;10.30;8.40;
69224;PMS1003;56333;51.306;17.056;2023-09-18T05:58:51;9.50;8.60;
69224;PMS1003;56333;51.306;17.056;2023-09-18T06:00:15;9.40;8.40;
69224;PMS1003;56333;51.306;17.056;2023-09-18T06:01:40;9.20;7.70;
69224;PMS1003;56333;51.306;17.056;2023-09-18T06:03:05;8.60;7.80;
69224;PMS1003;56333;51.306;17.056;2023-09-18T06:04:30;9.50;8.10;
69224;PMS1003;56333;51.306;17.056;2023-09-18T06:05:54;9.00;8.10;
69224;PMS1003;56333;51.306;17.056;2023-09-18T06:07:19;9.90;8.30;
69224;PMS1003;56333;51.306;17.056;2023-09-18T06:08:44;9.00;8.10;
69224;PMS1003;56333;51.306;17.056;2023-09-18T06:10:09;10.70;7.90;
69224;PMS1003;56333;51.306;17.056;2023-09-18T06:11:34;9.30;8.30;
69224;PMS1003;56333;51.306;17.056;2023-09-18T06:12:59;9.10;8.20;
69224;PMS1003;56333;51.306;17.056;2023-09-18T06:14:27;8.70;7.80;
69224;PMS1003;56333;51.306;17.056;2023-09-18T06:15:51;8.40;7.60;
69224;PMS1003;56333;51.306;17.056;2023-09-18T06:17:17;8.70;7.80;
69224;PMS1003;56333;51.306;17.056;2023-09-18T06:18:42;10.10;8.10;
69224;PMS1003;56333;51.306;17.056;2023-09-18T06:20:10;11.60;8.10;
69224;PMS1003;56333;51.306;17.056;2023-09-18T06:21:35;9.20;8.30;
69224;PMS1003;56333;51.306;17.056;2023-09-18T06:23:00;9.90;8.60;
69224;PMS1003;56333;51.306;17.056;2023-09-18T06:24:26;10.30;9.30;
69224;PMS1003;56333;51.306;17.056;2023-09-18T06:25:52;10.10;9.10;
69224;PMS1003;56333;51.306;17.056;2023-09-18T06:27:19;10.20;8.40;
69224;PMS1003;56333;51.306;17.056;2023-09-18T06:28:44;9.30;8.30;
69224;PMS1003;56333;51.306;17.056;2023-09-18T06:30:11;9.70;8.60;
69224;PMS1003;56333;51.306;17.056;2023-09-18T06:31:37;9.10;8.20;
69224;PMS1003;56333;51.306;17.056;2023-09-18T06:33:01;10.90;8.60;
69224;PMS1003;56333;51.306;17.056;2023-09-18T06:34:27;8.60;7.80;
69224;PMS1003;56333;51.306;17.056;2023-09-18T06:35:52;9.10;8.20;
69224;PMS1003;56333;51.306;17.056;2023-09-18T06:37:17;9.30;8.40;
69224;PMS1003;56333;51.306;17.056;2023-09-18T06:38:41;9.10;8.20;
69224;PMS1003;56333;51.306;17.056;2023-09-18T06:40:10;9.50;8.10;
69224;PMS1003;56333;51.306;17.056;2023-09-18T06:41:35;9.00;7.80;
69224;PMS1003;56333;51.306;17.056;2023-09-18T06:43:01;9.00;8.10;
69224;PMS1003;56333;51.306;17.056;2023-09-18T06:44:27;10.40;7.90;
69224;PMS1003;56333;51.306;17.056;2023-09-18T06:45:54;8.90;8.00;
69224;PMS1003;56333;51.306;17.056;2023-09-18T06:47:20;9.00;8.00;
69224;PMS1003;56333;51.306;17.056;2023-09-18T06:48:47;9.20;8.30;
69224;PMS1003;56333;51.306;17.056;2023-09-18T06:50:14;11.10;9.80;
69224;PMS1003;56333;51.306;17.056;2023-09-18T06:51:39;9.40;8.40;
69224;PMS1003;56333;51.306;17.056;2023-09-18T06:53:04;9.20;8.30;
69224;PMS1003;56333;51.306;17.056;2023-09-18T06:54:32;9.10;8.10;
69224;PMS1003;56333;51.306;17.056;2023-09-18T06:55:56;9.10;8.20;
69224;PMS1003;56333;51.306;17.056;2023-09-18T06:57:22;9.80;8.80;
69224;PMS1003;56333;51.306;17.056;2023-09-18T06:58:46;9.70;8.20;
69224;PMS1003;56333;51.306;17.056;2023-09-18T07:00:16;8.70;7.90;
69224;PMS1003;56333;51.306;17.056;2023-09-18T07:01:43;8.80;7.90;
69224;PMS1003;56333;51.306;17.056;2023-09-18T07:03:08;9.40;8.40;
69224;PMS1003;56333;51.306;17.056;2023-09-18T07:04:34;9.10;8.10;
69224;PMS1003;56333;51.306;17.056;2023-09-18T07:05:59;9.20;8.30;
69224;PMS1003;56333;51.306;17.056;2023-09-18T07:07:24;9.60;8.30;
69224;PMS1003;56333;51.306;17.056;2023-09-18T07:08:49;9.30;8.40;
69224;PMS1003;56333;51.306;17.056;2023-09-18T07:10:13;9.70;8.60;
69224;PMS1003;56333;51.306;17.056;2023-09-18T07:11:37;10.00;9.00;
69224;PMS1003;56333;51.306;17.056;2023-09-18T07:13:02;10.40;8.30;
69224;PMS1003;56333;51.306;17.056;2023-09-18T07:14:27;9.30;8.40;
69224;PMS1003;56333;51.306;17.056;2023-09-18T07:15:53;9.20;8.10;
69224;PMS1003;56333;51.306;17.056;2023-09-18T07:17:17;9.00;8.10;
69224;PMS1003;56333;51.306;17.056;2023-09-18T07:18:41;9.50;8.40;
69224;PMS1003;56333;51.306;17.056;2023-09-18T07:20:08;8.80;8.00;
69224;PMS1003;56333;51.306;17.056;2023-09-18T07:21:37;8.80;7.90;
69224;PMS1003;56333;51.306;17.056;2023-09-18T07:23:03;9.30;8.40;
69224;PMS1003;56333;51.306;17.056;2023-09-18T07:24:27;9.00;8.10;
69224;PMS1003;56333;51.306;17.056;2023-09-18T07:25:52;10.00;8.50;
69224;PMS1003;56333;51.306;17.056;2023-09-18T07:27:16;10.30;8.50;
69224;PMS1003;56333;51.306;17.056;2023-09-18T07:28:40;10.10;9.10;
69224;PMS1003;56333;51.306;17.056;2023-09-18T07:30:10;10.90;9.40;
69224;PMS1003;56333;51.306;17.056;2023-09-18T07:31:35;9.80;8.80;
69224;PMS1003;56333;51.306;17.056;2023-09-18T07:33:00;9.40;8.40;
69224;PMS1003;56333;51.306;17.056;2023-09-18T07:34:25;9.70;8.70;
69224;PMS1003;56333;51.306;17.056;2023-09-18T07:35:50;9.90;8.90;
69224;PMS1003;56333;51.306;17.056;2023-09-18T07:37:16;11.90;8.30;
69224;PMS1003;56333;51.306;17.056;2023-09-18T07:38:45;8.90;8.00;
69224;PMS1003;56333;51.306;17.056;2023-09-18T07:40:12;9.70;8.70;
69224;PMS1003;56333;51.306;17.056;2023-09-18T07:41:36;9.60;8.30;
69224;PMS1003;56333;51.306;17.056;2023-09-18T07:43:02;10.30;9.10;
69224;PMS1003;56333;51.306;17.056;2023-09-18T07:44:26;13.30;9.00;
69224;PMS1003;56333;51.306;17.056;2023-09-18T07:45:53;10.20;9.30;
69224;PMS1003;56333;51.306;17.056;2023-09-18T07:47:19;10.40;9.30;
69224;PMS1003;56333;51.306;17.056;2023-09-18T07:48:45;9.90;8.90;
69224;PMS1003;56333;51.306;17.056;2023-09-18T07:50:10;10.40;8.90;
69224;PMS1003;56333;51.306;17.056;2023-09-18T07:51:35;10.10;8.80;
69224;PMS1003;56333;51.306;17.056;2023-09-18T07:52:59;9.70;8.70;
69224;PMS1003;56333;51.306;17.056;2023-09-18T07:54:24;9.50;8.60;
69224;PMS1003;56333;51.306;17.056;2023-09-18T07:55:54;11.10;8.50;
69224;PMS1003;56333;51.306;17.056;2023-09-18T07:57:20;10.00;8.20;
69224;PMS1003;56333;51.306;17.056;2023-09-18T07:58:46;9.60;8.30;
69224;PMS1003;56333;51.306;17.056;2023-09-18T08:00:12;10.10;9.10;
69224;PMS1003;56333;51.306;17.056;2023-09-18T08:01:38;10.40;8.90;
69224;PMS1003;56333;51.306;17.056;2023-09-18T08:03:03;10.50;8.50;
69224;PMS1003;56333;51.306;17.056;2023-09-18T08:04:27;10.10;8.80;
69224;PMS1003;56333;51.306;17.056;2023-09-18T08:05:52;9.30;8.30;
69224;PMS1003;56333;51.306;17.056;2023-09-18T08:07:17;10.10;9.10;
69224;PMS1003;56333;51.306;17.056;2023-09-18T08:08:42;9.40;8.40;
69224;PMS1003;56333;51.306;17.056;2023-09-18T08:10:09;11.70;8.60;
69224;PMS1003;56333;51.306;17.056;2023-09-18T08:11:35;10.20;8.70;
69224;PMS1003;56333;51.306;17.056;2023-09-18T08:13:04;9.30;8.40;
69224;PMS1003;56333;51.306;17.056;2023-09-18T08:14:29;9.90;8.90;
69224;PMS1003;56333;51.306;17.056;2023-09-18T08:15:53;9.60;8.40;
69224;PMS1003;56333;51.306;17.056;2023-09-18T08:17:17;9.40;8.50;
69224;PMS1003;56333;51.306;17.056;2023-09-18T08:18:43;9.60;8.70;
69224;PMS1003;56333;51.306;17.056;2023-09-18T08:20:11;10.20;9.00;
69224;PMS1003;56333;51.306;17.056;2023-09-18T08:21:38;10.50;9.50;
69224;PMS1003;56333;51.306;17.056;2023-09-18T08:23:08;10.30;9.10;
69224;PMS1003;56333;51.306;17.056;2023-09-18T08:24:33;10.40;8.40;
69224;PMS1003;56333;51.306;17.056;2023-09-18T08:26:01;11.00;8.50;
69224;PMS1003;56333;51.306;17.056;2023-09-18T08:27:30;10.30;8.40;
69224;PMS1003;56333;51.306;17.056;2023-09-18T08:28:56;9.60;8.60;
69224;PMS1003;56333;51.306;17.056;2023-09-18T08:30:21;9.50;8.50;
69224;PMS1003;56333;51.306;17.056;2023-09-18T08:31:45;9.90;9.00;
69224;PMS1003;56333;51.306;17.056;2023-09-18T08:33:09;10.40;9.30;
69224;PMS1003;56333;51.306;17.056;2023-09-18T08:34:34;10.10;9.10;
69224;PMS1003;56333;51.306;17.056;2023-09-18T08:35:59;10.10;9.10;
69224;PMS1003;56333;51.306;17.056;2023-09-18T08:37:24;11.40;9.00;
69224;PMS1003;56333;51.306;17.056;2023-09-18T08:38:49;10.00;8.50;
69224;PMS1003;56333;51.306;17.056;2023-09-18T08:40:14;10.10;8.80;
69224;PMS1003;56333;51.306;17.056;2023-09-18T08:41:43;9.80;8.40;
69224;PMS1003;56333;51.306;17.056;2023-09-18T08:43:08;10.60;8.40;